createdAt,value
2022-08-24T00:01:56.173Z,100287.91
2022-08-24T00:04:24.584Z,100295.00
2022-08-24T00:06:52.404Z,100298.38
2022-08-24T00:09:19.512Z,100299.53
2022-08-24T00:11:47.583Z,100305.28
2022-08-24T00:14:15.041Z,100307.63
2022-08-24T00:16:42.631Z,100315.75
2022-08-24T00:19:11.116Z,100306.63
2022-08-24T00:21:38.256Z,100305.19
2022-08-24T00:24:06.216Z,100310.81
2022-08-24T00:26:33.744Z,100310.09
2022-08-24T00:29:06.840Z,100304.56
2022-08-24T00:31:34.841Z,100307.81
2022-08-24T00:34:02.047Z,100303.81
2022-08-24T00:36:29.147Z,100299.06
2022-08-24T00:38:56.412Z,100296.22
2022-08-24T00:41:23.554Z,100302.97
2022-08-24T00:44:01.101Z,100304.38
2022-08-24T00:46:59.190Z,100293.53
2022-08-24T00:49:57.145Z,100293.84
2022-08-24T00:52:39.864Z,100301.53
2022-08-24T00:55:20.809Z,100307.47
2022-08-24T00:57:52.327Z,100320.47
2022-08-24T01:00:27.369Z,100316.53
2022-08-24T01:03:04.395Z,100316.84
2022-08-24T01:05:35.703Z,100331.47
2022-08-24T01:08:05.136Z,100330.34
2022-08-24T01:10:38.243Z,100328.63
2022-08-24T01:13:09.526Z,100334.84
2022-08-24T01:15:42.970Z,100329.47
2022-08-24T01:18:36.313Z,100326.72
2022-08-24T01:21:16.216Z,100326.88
2022-08-24T01:23:47.838Z,100320.28
2022-08-24T01:26:22.686Z,100316.31
2022-08-24T01:28:56.756Z,100323.03
2022-08-24T01:31:25.259Z,100312.69
2022-08-24T01:33:54.686Z,100318.38
2022-08-24T01:36:34.765Z,100313.31
2022-08-24T01:39:16.909Z,100310.81
2022-08-24T01:41:44.309Z,100310.28
2022-08-24T01:44:11.448Z,100315.34
2022-08-24T01:46:38.523Z,100318.56
2022-08-24T01:49:05.903Z,100323.63
2022-08-24T01:51:33.960Z,100308.69
2022-08-24T01:54:03.171Z,100313.31
2022-08-24T01:56:31.963Z,100306.03
2022-08-24T01:59:01.011Z,100306.03
2022-08-24T02:01:31.127Z,100300.94
2022-08-24T02:04:02.911Z,100294.63
2022-08-24T02:06:29.914Z,100301.56
2022-08-24T02:08:57.014Z,100305.13
2022-08-24T02:11:24.039Z,100294.34
2022-08-24T02:13:51.129Z,100299.31
2022-08-24T02:16:19.696Z,100306.31
2022-08-24T02:18:47.562Z,100316.63
2022-08-24T02:21:15.033Z,100335.97
2022-08-24T02:23:42.959Z,100358.66
2022-08-24T02:26:11.710Z,100370.88
2022-08-24T02:28:40.286Z,100361.09
2022-08-24T02:31:10.318Z,100361.91
2022-08-24T02:33:39.058Z,100372.38
2022-08-24T02:36:25.694Z,100387.50
2022-08-24T02:38:55.270Z,100366.75
2022-08-24T02:41:24.766Z,100365.94
2022-08-24T02:43:54.751Z,100363.81
2022-08-24T02:46:29.066Z,100370.16
2022-08-24T02:49:10.412Z,100366.63
2022-08-24T02:51:44.411Z,100369.09
2022-08-24T02:54:18.092Z,100360.72
2022-08-24T02:56:47.253Z,100354.88
2022-08-24T02:59:16.144Z,100367.28
2022-08-24T03:01:43.925Z,100361.00
2022-08-24T03:04:12.062Z,100367.16
2022-08-24T03:06:39.267Z,100368.22
2022-08-24T03:09:07.433Z,100363.84
2022-08-24T03:11:34.739Z,100362.81
2022-08-24T03:14:02.169Z,100364.59
2022-08-24T03:16:30.320Z,100357.72
2022-08-24T03:18:57.892Z,100362.34
2022-08-24T03:21:25.080Z,100350.19
2022-08-24T03:23:52.427Z,100345.41
2022-08-24T03:26:19.544Z,100353.94
2022-08-24T03:28:46.983Z,100347.50
2022-08-24T03:31:16.978Z,100351.41
2022-08-24T03:33:44.104Z,100355.13
2022-08-24T03:36:14.079Z,100354.69
2022-08-24T03:38:41.986Z,100362.84
2022-08-24T03:41:09.597Z,100362.84
2022-08-24T03:43:51.402Z,100363.44
2022-08-24T03:46:28.750Z,100360.47
2022-08-24T03:48:59.423Z,100367.69
2022-08-24T03:51:28.683Z,100379.31
2022-08-24T03:53:58.692Z,100384.16
2022-08-24T03:56:26.543Z,100388.72
2022-08-24T03:58:55.033Z,100385.69
2022-08-24T04:01:22.346Z,100392.03
2022-08-24T04:03:50.494Z,100385.41
2022-08-24T04:06:19.699Z,100379.47
2022-08-24T04:08:48.104Z,100387.72
2022-08-24T04:11:23.075Z,100393.63
2022-08-24T04:13:53.749Z,100390.88
2022-08-24T04:16:22.088Z,100378.66
2022-08-24T04:18:51.259Z,100381.63
2022-08-24T04:21:25.821Z,100380.22
2022-08-24T04:23:53.507Z,100389.75
2022-08-24T04:26:32.369Z,100386.50
2022-08-24T04:29:12.433Z,100388.50
2022-08-24T04:31:41.246Z,100383.47
2022-08-24T04:34:10.608Z,100394.78
2022-08-24T04:36:40.733Z,100396.47
2022-08-24T04:39:07.743Z,100401.88
2022-08-24T04:41:35.352Z,100405.44
2022-08-24T04:44:02.824Z,100403.94
2022-08-24T04:46:30.578Z,100403.34
2022-08-24T04:48:58.968Z,100405.06
2022-08-24T04:51:26.070Z,100407.19
2022-08-24T04:53:54.620Z,100398.06
2022-08-24T04:56:24.830Z,100401.00
2022-08-24T04:58:56.833Z,100403.81
2022-08-24T05:01:27.500Z,100408.19
2022-08-24T05:03:56.030Z,100415.47
2022-08-24T05:06:29.345Z,100413.25
2022-08-24T05:08:58.370Z,100417.34
2022-08-24T05:11:26.901Z,100415.16
2022-08-24T05:13:55.965Z,100429.22
2022-08-24T05:16:24.633Z,100426.59
2022-08-24T05:18:52.807Z,100432.94
2022-08-24T05:21:23.424Z,100431.53
2022-08-24T05:23:50.875Z,100434.34
2022-08-24T05:26:25.971Z,100428.97
2022-08-24T05:28:59.802Z,100423.56
2022-08-24T05:31:30.826Z,100424.22
2022-08-24T05:34:00.027Z,100426.69
2022-08-24T05:36:31.969Z,100428.59
2022-08-24T05:39:02.344Z,100431.50
2022-08-24T05:41:30.276Z,100438.47
2022-08-24T05:43:57.476Z,100435.31
2022-08-24T05:46:24.523Z,100431.97
2022-08-24T05:48:52.967Z,100442.22
2022-08-24T05:51:21.605Z,100434.22
2022-08-24T05:53:48.852Z,100440.41
2022-08-24T05:56:18.136Z,100432.13
2022-08-24T05:58:45.978Z,100434.72
2022-08-24T06:01:17.733Z,100438.06
2022-08-24T06:03:45.340Z,100428.72
2022-08-24T06:06:13.542Z,100432.78
2022-08-24T06:08:45.759Z,100427.13
2022-08-24T06:11:35.023Z,100414.81
2022-08-24T06:14:07.503Z,100416.53
2022-08-24T06:16:36.863Z,100402.59
2022-08-24T06:19:05.140Z,100412.78
2022-08-24T06:21:32.596Z,100399.81
2022-08-24T06:24:00.288Z,100396.03
2022-08-24T06:26:50.407Z,100396.13
2022-08-24T06:29:19.396Z,100399.16
2022-08-24T06:31:49.255Z,100401.00
2022-08-24T06:34:24.549Z,100410.16
2022-08-24T06:36:51.601Z,100407.75
2022-08-24T06:39:18.681Z,100409.19
2022-08-24T06:41:45.755Z,100398.66
2022-08-24T06:44:12.748Z,100406.56
2022-08-24T06:46:39.925Z,100410.41
2022-08-24T06:49:07.964Z,100400.75
2022-08-24T06:51:35.287Z,100390.53
2022-08-24T06:54:02.393Z,100385.22
2022-08-24T06:56:29.482Z,100397.31
2022-08-24T06:58:56.565Z,100385.47
2022-08-24T07:01:27.578Z,100387.03
2022-08-24T07:03:55.564Z,100389.41
2022-08-24T07:06:24.689Z,100394.06
2022-08-24T07:08:52.825Z,100393.47
2022-08-24T07:11:20.961Z,100390.31
2022-08-24T07:13:49.991Z,100400.88
2022-08-24T07:16:21.402Z,100397.16
2022-08-24T07:18:50.114Z,100401.22
2022-08-24T07:21:20.081Z,100399.22
2022-08-24T07:23:55.163Z,100401.31
2022-08-24T07:26:25.517Z,100391.25
2022-08-24T07:29:01.354Z,100395.75
2022-08-24T07:31:32.033Z,100397.41
2022-08-24T07:34:02.030Z,100398.16
2022-08-24T07:36:29.303Z,100396.22
2022-08-24T07:38:57.262Z,100394.97
2022-08-24T07:42:02.437Z,100388.28
2022-08-24T07:44:15.925Z,100398.72
2022-08-24T07:46:44.233Z,100394.47
2022-08-24T07:49:31.322Z,100397.94
2022-08-24T07:52:00.166Z,100405.88
2022-08-24T07:54:30.250Z,100398.50
2022-08-24T07:57:00.286Z,100400.31
2022-08-24T07:59:27.323Z,100398.72
2022-08-24T08:01:54.409Z,100400.41
2022-08-24T08:04:25.061Z,100403.78
2022-08-24T08:06:53.591Z,100403.34
2022-08-24T08:09:21.221Z,100406.00
2022-08-24T08:11:49.301Z,100397.03
2022-08-24T08:14:16.382Z,100405.81
2022-08-24T08:16:43.577Z,100403.84
2022-08-24T08:19:11.183Z,100404.41
2022-08-24T08:22:06.466Z,100395.72
2022-08-24T08:24:33.773Z,100396.69
2022-08-24T08:27:00.857Z,100394.09
2022-08-24T08:29:28.559Z,100381.38
2022-08-24T08:31:55.948Z,100400.66
2022-08-24T08:34:23.033Z,100397.28
2022-08-24T08:36:53.339Z,100392.66
2022-08-24T08:39:22.583Z,100399.81
2022-08-24T08:41:57.034Z,100398.44
2022-08-24T08:44:41.127Z,100387.19
2022-08-24T08:47:37.502Z,100388.97
2022-08-24T08:50:18.861Z,100381.47
2022-08-24T08:53:23.633Z,100379.00
2022-08-24T08:56:40.774Z,100378.13
2022-08-24T09:00:15.756Z,100386.34
2022-08-24T09:03:23.166Z,100379.59
2022-08-24T09:06:34.190Z,100376.59
2022-08-24T09:09:41.370Z,100377.50
2022-08-24T09:12:23.190Z,100369.91
2022-08-24T09:15:14.589Z,100381.91
2022-08-24T09:18:21.002Z,100375.47
2022-08-24T09:21:17.575Z,100377.47
2022-08-24T09:24:34.696Z,100379.09
2022-08-24T09:27:35.082Z,100368.81
2022-08-24T09:30:28.106Z,100362.69
2022-08-24T09:33:12.306Z,100374.22
2022-08-24T09:35:51.171Z,100370.88
2022-08-24T09:38:33.247Z,100358.88
2022-08-24T09:41:53.814Z,100365.56
2022-08-24T09:44:30.559Z,100366.38
2022-08-24T09:47:41.558Z,100361.63
2022-08-24T09:50:23.376Z,100353.81
2022-08-24T09:52:59.547Z,100354.28
2022-08-24T09:56:00.455Z,100350.50
2022-08-24T09:58:43.156Z,100351.34
2022-08-24T10:01:54.026Z,100347.03
2022-08-24T10:04:37.206Z,100345.59
2022-08-24T10:07:25.693Z,100340.72
2022-08-24T10:10:33.542Z,100340.22
2022-08-24T10:14:08.216Z,100340.06
2022-08-24T10:16:59.111Z,100327.00
2022-08-24T10:19:50.871Z,100328.34
2022-08-24T10:23:02.400Z,100322.22
2022-08-24T10:26:09.487Z,100316.59
2022-08-24T10:29:05.578Z,100314.97
2022-08-24T10:32:18.910Z,100311.50
2022-08-24T10:35:15.155Z,100309.06
2022-08-24T10:38:52.839Z,100308.81
2022-08-24T10:42:41.139Z,100301.25
2022-08-24T10:46:07.611Z,100297.81
2022-08-24T10:48:54.907Z,100296.84
2022-08-24T10:52:15.686Z,100296.44
2022-08-24T10:54:42.982Z,100290.97
2022-08-24T10:57:54.566Z,100284.28
2022-08-24T11:00:27.593Z,100293.63
2022-08-24T11:03:15.125Z,100294.28
2022-08-24T11:05:49.184Z,100290.94
2022-08-24T11:08:30.770Z,100290.25
2022-08-24T11:11:24.050Z,100285.94
2022-08-24T11:14:09.811Z,100294.75
2022-08-24T11:16:45.686Z,100286.69
2022-08-24T11:19:35.266Z,100286.75
2022-08-24T11:22:25.139Z,100282.94
2022-08-24T11:25:27.336Z,100279.34
2022-08-24T11:28:05.785Z,100274.88
2022-08-24T11:30:39.447Z,100272.56
2022-08-24T11:33:32.591Z,100270.84
2022-08-24T11:36:02.843Z,100261.06
2022-08-24T11:38:34.998Z,100260.44
2022-08-24T11:41:13.740Z,100264.88
2022-08-24T11:44:04.760Z,100248.47
2022-08-24T11:46:51.262Z,100252.09
2022-08-24T11:50:16.254Z,100252.63
2022-08-24T11:53:13.964Z,100245.69
2022-08-24T11:55:51.761Z,100251.16
2022-08-24T11:58:48.661Z,100247.81
2022-08-24T12:01:43.601Z,100244.53
2022-08-24T12:04:44.879Z,100246.25
2022-08-24T12:07:42.830Z,100228.44
2022-08-24T12:10:58.089Z,100251.34
2022-08-24T12:13:49.268Z,100236.00
2022-08-24T12:16:44.041Z,100228.84
2022-08-24T12:19:35.719Z,100236.81
2022-08-24T12:22:06.696Z,100235.59
2022-08-24T12:25:23.923Z,100225.38
2022-08-24T12:27:52.408Z,100222.59
2022-08-24T12:30:19.501Z,100214.16
2022-08-24T12:32:53.855Z,100216.81
2022-08-24T12:35:41.691Z,100207.25
2022-08-24T12:38:45.799Z,100200.78
2022-08-24T12:41:32.375Z,100207.25
2022-08-24T12:44:25.485Z,100206.13
2022-08-24T12:46:54.507Z,100212.66
2022-08-24T12:49:48.473Z,100206.53
2022-08-24T12:53:04.690Z,100200.72
2022-08-24T12:56:23.810Z,100196.34
2022-08-24T12:58:59.767Z,100198.69
2022-08-24T13:01:35.700Z,100202.38
2022-08-24T13:04:13.489Z,100197.72
2022-08-24T13:07:00.138Z,100198.38
2022-08-24T13:09:33.670Z,100197.13
2022-08-24T13:12:38.780Z,100203.56
2022-08-24T13:15:23.904Z,100181.28
2022-08-24T13:17:52.745Z,100178.94
2022-08-24T13:20:50.790Z,100183.47
2022-08-24T13:23:21.314Z,100177.38
2022-08-24T13:25:48.264Z,100165.28
2022-08-24T13:28:21.592Z,100179.81
2022-08-24T13:31:15.385Z,100184.56
2022-08-24T13:33:58.406Z,100183.44
2022-08-24T13:36:31.658Z,100182.94
2022-08-24T13:39:46.072Z,100177.44
2022-08-24T13:42:24.775Z,100171.84
2022-08-24T13:45:17.955Z,100169.34
2022-08-24T13:48:12.439Z,100167.47
2022-08-24T13:51:03.958Z,100163.28
2022-08-24T13:53:53.394Z,100152.44
2022-08-24T13:56:23.557Z,100157.00
2022-08-24T13:59:37.233Z,100164.28
2022-08-24T14:02:16.264Z,100163.72
2022-08-24T14:04:55.678Z,100160.88
2022-08-24T14:07:33.906Z,100159.97
2022-08-24T14:10:33.048Z,100159.69
2022-08-24T14:13:33.071Z,100155.41
2022-08-24T14:17:02.540Z,100156.38
2022-08-24T14:19:41.097Z,100130.34
2022-08-24T14:22:53.330Z,100132.81
2022-08-24T14:25:24.935Z,100119.53
2022-08-24T14:28:40.351Z,100131.00
2022-08-24T14:31:28.318Z,100124.88
2022-08-24T14:34:44.887Z,100121.97
2022-08-24T14:37:14.807Z,100115.47
2022-08-24T14:40:10.904Z,100120.88
2022-08-24T14:42:51.842Z,100112.31
2022-08-24T14:45:21.740Z,100116.75
2022-08-24T14:48:00.622Z,100114.59
2022-08-24T14:50:45.223Z,100111.41
2022-08-24T14:53:21.221Z,100113.22
2022-08-24T14:56:12.564Z,100109.13
2022-08-24T14:59:09.443Z,100110.31
2022-08-24T15:01:59.374Z,100105.13
2022-08-24T15:05:36.697Z,100104.81
2022-08-24T15:08:16.227Z,100105.91
2022-08-24T15:10:59.192Z,100101.81
2022-08-24T15:13:32.958Z,100096.88
2022-08-24T15:16:34.696Z,100096.06
2022-08-24T15:19:35.980Z,100097.25
2022-08-24T15:22:09.761Z,100100.53
2022-08-24T15:25:11.668Z,100094.13
2022-08-24T15:28:08.282Z,100096.03
2022-08-24T15:30:39.961Z,100097.50
2022-08-24T15:33:20.021Z,100091.25
2022-08-24T15:35:52.181Z,100089.91
2022-08-24T15:38:23.151Z,100099.09
2022-08-24T15:41:04.923Z,100093.50
2022-08-24T15:43:35.040Z,100091.59
2022-08-24T15:46:02.418Z,100091.66
2022-08-24T15:48:31.819Z,100085.72
2022-08-24T15:51:01.014Z,100098.59
2022-08-24T15:53:41.098Z,100099.59
2022-08-24T15:56:35.722Z,100088.41
2022-08-24T15:59:12.023Z,100089.31
2022-08-24T16:02:00.435Z,100100.25
2022-08-24T16:04:48.538Z,100097.13
2022-08-24T16:07:26.330Z,100103.88
2022-08-24T16:10:11.505Z,100101.28
2022-08-24T16:12:39.887Z,100097.03
2022-08-24T16:15:19.427Z,100100.88
2022-08-24T16:17:59.195Z,100100.78
2022-08-24T16:20:26.757Z,100101.47
2022-08-24T16:23:10.730Z,100100.44
2022-08-24T16:25:48.008Z,100101.34
2022-08-24T16:28:23.758Z,100100.75
2022-08-24T16:30:58.733Z,100086.03
2022-08-24T16:33:34.443Z,100100.56
2022-08-24T16:36:11.912Z,100096.47
2022-08-24T16:38:47.063Z,100099.97
2022-08-24T16:41:20.378Z,100098.38
2022-08-24T16:43:48.776Z,100107.53
2022-08-24T16:46:22.734Z,100098.59
2022-08-24T16:48:50.164Z,100105.53
2022-08-24T16:51:17.192Z,100105.13
2022-08-24T16:53:44.138Z,100098.84
2022-08-24T16:56:14.828Z,100098.63
2022-08-24T16:58:47.432Z,100093.81
2022-08-24T17:01:15.959Z,100095.41
2022-08-24T17:03:46.060Z,100093.06
2022-08-24T17:06:13.293Z,100097.69
2022-08-24T17:08:40.861Z,100096.72
2022-08-24T17:11:08.573Z,100097.94
2022-08-24T17:13:51.070Z,100096.88
2022-08-24T17:16:21.244Z,100110.84
2022-08-24T17:18:48.541Z,100111.13
2022-08-24T17:21:16.195Z,100103.03
2022-08-24T17:23:44.402Z,100111.63
2022-08-24T17:26:20.746Z,100112.72
2022-08-24T17:28:51.934Z,100103.50
2022-08-24T17:31:19.226Z,100116.13
2022-08-24T17:33:46.267Z,100114.47
2022-08-24T17:36:25.004Z,100130.59
2022-08-24T17:38:56.122Z,100131.78
2022-08-24T17:41:27.303Z,100131.78
2022-08-24T17:43:55.110Z,100132.59
2022-08-24T17:46:22.547Z,100135.31
2022-08-24T17:48:49.897Z,100143.47
2022-08-24T17:51:16.967Z,100140.56
2022-08-24T17:53:44.049Z,100151.16
2022-08-24T17:56:15.680Z,100149.53
2022-08-24T17:59:05.249Z,100156.56
2022-08-24T18:01:32.726Z,100150.13
2022-08-24T18:03:59.769Z,100157.41
2022-08-24T18:06:28.073Z,100147.75
2022-08-24T18:08:59.089Z,100152.78
2022-08-24T18:11:26.602Z,100156.06
2022-08-24T18:13:54.713Z,100163.53
2022-08-24T18:16:27.464Z,100163.28
2022-08-24T18:18:55.379Z,100168.88
2022-08-24T18:21:22.777Z,100176.31
2022-08-24T18:23:50.870Z,100174.56
2022-08-24T18:26:27.893Z,100166.59
2022-08-24T18:29:00.366Z,100174.81
2022-08-24T18:31:29.521Z,100169.03
2022-08-24T18:33:56.513Z,100168.13
2022-08-24T18:36:23.563Z,100176.97
2022-08-24T18:38:50.495Z,100178.56
2022-08-24T18:41:17.732Z,100186.72
2022-08-24T18:43:44.938Z,100184.78
2022-08-24T18:46:12.318Z,100192.41
2022-08-24T18:48:39.383Z,100197.75
2022-08-24T18:51:06.632Z,100194.91
2022-08-24T18:53:35.438Z,100190.63
2022-08-24T18:56:09.288Z,100202.53
2022-08-24T18:58:39.207Z,100202.97
2022-08-24T19:01:06.842Z,100212.78
2022-08-24T19:03:34.523Z,100214.03
2022-08-24T19:06:01.465Z,100212.63
2022-08-24T19:08:28.555Z,100211.84
2022-08-24T19:10:56.223Z,100212.06
2022-08-24T19:13:23.503Z,100209.56
2022-08-24T19:15:51.028Z,100213.44
2022-08-24T19:18:21.538Z,100213.81
2022-08-24T19:20:54.165Z,100214.06
2022-08-24T19:23:35.408Z,100217.19
2022-08-24T19:26:03.806Z,100217.53
2022-08-24T19:28:31.254Z,100217.38
2022-08-24T19:31:02.088Z,100226.91
2022-08-24T19:33:36.105Z,100210.72
2022-08-24T19:36:04.179Z,100215.31
2022-08-24T19:38:31.344Z,100216.44
2022-08-24T19:40:59.513Z,100211.59
2022-08-24T19:43:28.260Z,100204.09
2022-08-24T19:46:05.343Z,100212.03
2022-08-24T19:48:38.291Z,100214.66
2022-08-24T19:51:09.044Z,100218.72
2022-08-24T19:53:38.001Z,100221.50
2022-08-24T19:56:06.913Z,100222.34
2022-08-24T19:58:59.594Z,100226.06
2022-08-24T20:01:34.860Z,100224.97
2022-08-24T20:04:06.396Z,100221.34
2022-08-24T20:06:35.658Z,100217.44
2022-08-24T20:09:04.318Z,100223.25
2022-08-24T20:11:31.763Z,100219.78
2022-08-24T20:13:58.782Z,100221.53
2022-08-24T20:16:35.628Z,100222.63
2022-08-24T20:19:04.137Z,100216.56
2022-08-24T20:21:31.784Z,100214.25
2022-08-24T20:24:02.712Z,100212.50
2022-08-24T20:26:43.530Z,100228.09
2022-08-24T20:29:12.012Z,100227.53
2022-08-24T20:31:40.066Z,100228.72
2022-08-24T20:34:07.471Z,100235.84
2022-08-24T20:36:36.997Z,100233.34
2022-08-24T20:39:10.508Z,100231.00
2022-08-24T20:41:38.470Z,100231.88
2022-08-24T20:44:10.055Z,100231.88
2022-08-24T20:46:38.921Z,100232.34
2022-08-24T20:49:15.335Z,100237.75
2022-08-24T20:51:43.972Z,100237.69
2022-08-24T20:54:11.382Z,100243.09
2022-08-24T20:56:38.925Z,100245.84
2022-08-24T20:59:09.864Z,100238.91
2022-08-24T21:01:38.560Z,100249.47
2022-08-24T21:04:05.855Z,100240.31
2022-08-24T21:06:34.241Z,100244.84
2022-08-24T21:09:04.618Z,100240.09
2022-08-24T21:11:34.814Z,100245.78
2022-08-24T21:14:06.744Z,100250.75
2022-08-24T21:16:41.405Z,100248.22
2022-08-24T21:19:17.430Z,100248.09
2022-08-24T21:21:46.889Z,100248.69
2022-08-24T21:24:15.748Z,100251.91
2022-08-24T21:26:42.875Z,100251.81
2022-08-24T21:29:10.434Z,100255.91
2022-08-24T21:31:38.137Z,100255.66
2022-08-24T21:34:24.851Z,100256.34
2022-08-24T21:36:53.731Z,100265.31
2022-08-24T21:39:21.541Z,100264.13
2022-08-24T21:41:48.609Z,100268.19
2022-08-24T21:44:16.863Z,100261.72
2022-08-24T21:46:44.088Z,100272.41
2022-08-24T21:49:12.329Z,100267.59
2022-08-24T21:51:40.472Z,100280.72
2022-08-24T21:54:07.887Z,100279.03
2022-08-24T21:56:35.445Z,100278.81
2022-08-24T21:59:03.190Z,100275.75
2022-08-24T22:01:30.445Z,100279.53
2022-08-24T22:04:01.592Z,100293.50
2022-08-24T22:06:31.592Z,100287.47
2022-08-24T22:09:00.826Z,100287.91
2022-08-24T22:11:28.676Z,100296.53
2022-08-24T22:13:56.011Z,100291.78
2022-08-24T22:16:23.506Z,100298.44
2022-08-24T22:18:50.739Z,100292.09
2022-08-24T22:21:23.457Z,100288.28
2022-08-24T22:23:50.731Z,100290.94
2022-08-24T22:26:17.914Z,100296.13
2022-08-24T22:28:44.976Z,100293.66
2022-08-24T22:31:29.596Z,100299.81
2022-08-24T22:33:59.467Z,100289.75
2022-08-24T22:36:28.305Z,100292.41
2022-08-24T22:38:58.277Z,100290.63
2022-08-24T22:41:26.659Z,100286.66
2022-08-24T22:44:14.206Z,100286.16
2022-08-24T22:46:42.237Z,100287.19
2022-08-24T22:49:10.689Z,100285.25
2022-08-24T22:51:38.339Z,100294.63
2022-08-24T22:54:05.697Z,100291.00
2022-08-24T22:56:40.163Z,100297.13
2022-08-24T22:59:09.439Z,100287.13
2022-08-24T23:01:42.021Z,100291.09
2022-08-24T23:04:15.209Z,100287.00
2022-08-24T23:06:42.655Z,100290.31
2022-08-24T23:09:10.781Z,100293.34
2022-08-24T23:11:38.883Z,100293.28
2022-08-24T23:14:09.024Z,100300.66
2022-08-24T23:16:44.891Z,100303.59
2022-08-24T23:19:30.307Z,100300.41
2022-08-24T23:21:57.384Z,100299.31
2022-08-24T23:24:24.446Z,100304.16
2022-08-24T23:26:51.549Z,100307.44
2022-08-24T23:29:18.615Z,100299.66
2022-08-24T23:31:47.351Z,100301.28
2022-08-24T23:34:15.779Z,100301.34
2022-08-24T23:36:43.833Z,100303.53
2022-08-24T23:39:11.948Z,100303.19
2022-08-24T23:41:46.251Z,100305.66
2022-08-24T23:44:26.371Z,100308.81
2022-08-24T23:46:53.869Z,100304.31
2022-08-24T23:49:22.981Z,100307.00
2022-08-24T23:51:52.513Z,100303.16
2022-08-24T23:54:21.026Z,100299.06
2022-08-24T23:56:50.957Z,100294.44
2022-08-24T23:59:25.285Z,100294.38
